createdAt,value
2022-09-15T00:00:57.206Z,15.57
2022-09-15T00:03:24.561Z,14.27
2022-09-15T00:05:53.574Z,14.75
2022-09-15T00:08:20.911Z,14.93
2022-09-15T00:10:56.061Z,16.63
2022-09-15T00:13:23.219Z,16.65
2022-09-15T00:15:50.179Z,16.13
2022-09-15T00:18:17.521Z,14.25
2022-09-15T00:20:45.720Z,16.60
2022-09-15T00:23:14.384Z,15.55
2022-09-15T00:25:46.457Z,16.67
2022-09-15T00:28:15.344Z,15.30
2022-09-15T00:30:47.983Z,17.95
2022-09-15T00:33:16.329Z,18.48
2022-09-15T00:35:45.400Z,14.88
2022-09-15T00:38:12.979Z,15.43
2022-09-15T00:40:51.517Z,16.83
2022-09-15T00:43:20.408Z,13.98
2022-09-15T00:45:48.445Z,15.73
2022-09-15T00:48:20.906Z,16.42
2022-09-15T00:50:53.949Z,17.77
2022-09-15T00:53:21.126Z,15.85
2022-09-15T00:55:49.614Z,19.13
2022-09-15T00:58:25.817Z,16.33
2022-09-15T01:01:01.019Z,15.52
2022-09-15T01:03:32.669Z,17.80
2022-09-15T01:06:05.222Z,18.55
2022-09-15T01:08:36.713Z,17.77
2022-09-15T01:11:03.411Z,16.17
2022-09-15T01:13:30.222Z,14.95
2022-09-15T01:16:08.602Z,17.65
2022-09-15T01:18:48.941Z,15.27
2022-09-15T01:21:36.633Z,16.58
2022-09-15T01:24:30.393Z,16.63
2022-09-15T01:27:46.265Z,17.70
2022-09-15T01:30:16.424Z,17.55
2022-09-15T01:33:08.699Z,16.42
2022-09-15T01:36:00.678Z,18.05
2022-09-15T01:38:38.163Z,17.00
2022-09-15T01:41:16.918Z,17.80
2022-09-15T01:44:25.713Z,18.58
2022-09-15T01:46:58.541Z,19.10
2022-09-15T01:49:38.308Z,16.38
2022-09-15T01:52:05.561Z,17.95
2022-09-15T01:54:48.776Z,20.10
2022-09-15T01:57:22.080Z,19.15
2022-09-15T01:59:54.349Z,15.88
2022-09-15T02:02:28.421Z,16.45
2022-09-15T02:05:25.421Z,17.65
2022-09-15T02:08:16.028Z,17.35
2022-09-15T02:10:48.195Z,18.35
2022-09-15T02:13:25.706Z,16.98
2022-09-15T02:16:00.091Z,17.50
2022-09-15T02:18:44.043Z,20.38
2022-09-15T02:21:37.407Z,15.90
2022-09-15T02:24:19.110Z,17.27
2022-09-15T02:26:49.678Z,17.73
2022-09-15T02:29:20.785Z,16.88
2022-09-15T02:31:49.659Z,18.58
2022-09-15T02:34:27.078Z,20.58
2022-09-15T02:36:55.123Z,17.92
2022-09-15T02:39:27.647Z,17.48
2022-09-15T02:41:54.267Z,16.90
2022-09-15T02:44:20.795Z,16.38
2022-09-15T02:46:47.410Z,18.02
2022-09-15T02:49:14.246Z,23.88
2022-09-15T02:51:40.778Z,18.58
2022-09-15T02:54:08.098Z,19.60
2022-09-15T02:56:34.604Z,19.17
2022-09-15T02:59:01.548Z,16.38
2022-09-15T03:01:34.743Z,18.65
2022-09-15T03:04:03.957Z,16.42
2022-09-15T03:06:34.661Z,18.42
2022-09-15T03:09:05.055Z,18.90
2022-09-15T03:11:31.865Z,15.35
2022-09-15T03:14:05.756Z,15.85
2022-09-15T03:16:34.523Z,14.05
2022-09-15T03:19:01.978Z,14.68
2022-09-15T03:21:29.680Z,14.98
2022-09-15T03:23:57.713Z,11.90
2022-09-15T03:26:25.187Z,14.23
2022-09-15T03:28:51.905Z,13.05
2022-09-15T03:31:19.855Z,14.55
2022-09-15T03:33:46.719Z,14.38
2022-09-15T03:36:13.389Z,15.50
2022-09-15T03:38:39.932Z,15.35
2022-09-15T03:41:10.053Z,15.52
2022-09-15T03:43:37.909Z,15.25
2022-09-15T03:46:06.790Z,13.40
2022-09-15T03:48:35.769Z,13.43
2022-09-15T03:51:05.845Z,16.40
2022-09-15T03:53:34.255Z,14.32
2022-09-15T03:56:24.764Z,16.15
2022-09-15T03:58:52.001Z,15.68
2022-09-15T04:01:19.939Z,15.13
2022-09-15T04:03:50.833Z,16.25
2022-09-15T04:06:19.373Z,17.17
2022-09-15T04:08:45.888Z,16.45
2022-09-15T04:11:13.682Z,18.30
2022-09-15T04:13:42.085Z,16.33
2022-09-15T04:16:17.804Z,16.75
2022-09-15T04:18:46.057Z,18.35
2022-09-15T04:21:15.717Z,17.25
2022-09-15T04:23:43.268Z,16.63
2022-09-15T04:26:15.988Z,15.98
2022-09-15T04:28:42.644Z,16.60
2022-09-15T04:31:11.682Z,17.02
2022-09-15T04:33:39.569Z,16.45
2022-09-15T04:36:18.240Z,16.95
2022-09-15T04:38:45.590Z,21.90
2022-09-15T04:41:12.449Z,15.10
2022-09-15T04:43:39.198Z,15.10
2022-09-15T04:46:06.229Z,17.10
2022-09-15T04:48:32.791Z,14.45
2022-09-15T04:51:05.035Z,15.93
2022-09-15T04:53:31.596Z,17.65
2022-09-15T04:56:05.918Z,16.30
2022-09-15T04:58:40.329Z,19.63
2022-09-15T05:01:13.330Z,16.00
2022-09-15T05:03:40.478Z,14.93
2022-09-15T05:06:09.497Z,14.75
2022-09-15T05:08:36.645Z,14.65
2022-09-15T05:11:07.083Z,15.27
2022-09-15T05:13:35.346Z,14.90
2022-09-15T05:16:19.699Z,18.20
2022-09-15T05:18:47.630Z,16.05
2022-09-15T05:21:16.489Z,15.88
2022-09-15T05:23:43.749Z,16.92
2022-09-15T05:26:16.290Z,16.65
2022-09-15T05:28:43.026Z,13.65
2022-09-15T05:31:12.083Z,16.00
2022-09-15T05:33:39.300Z,16.08
2022-09-15T05:36:07.199Z,16.08
2022-09-15T05:38:34.113Z,16.98
2022-09-15T05:41:19.126Z,15.55
2022-09-15T05:43:47.298Z,15.55
2022-09-15T05:46:14.828Z,17.02
2022-09-15T05:48:41.626Z,17.33
2022-09-15T05:51:08.202Z,19.90
2022-09-15T05:53:35.663Z,16.40
2022-09-15T05:56:05.715Z,17.60
2022-09-15T05:58:32.557Z,17.35
2022-09-15T06:01:05.490Z,16.02
2022-09-15T06:03:32.300Z,18.42
2022-09-15T06:06:00.416Z,19.17
2022-09-15T06:08:35.135Z,15.18
2022-09-15T06:11:07.921Z,15.18
2022-09-15T06:13:34.695Z,16.67
2022-09-15T06:16:06.556Z,16.20
2022-09-15T06:18:35.173Z,17.90
2022-09-15T06:21:14.197Z,15.80
2022-09-15T06:23:44.129Z,18.70
2022-09-15T06:26:18.439Z,15.98
2022-09-15T06:28:56.362Z,16.10
2022-09-15T06:31:24.015Z,15.88
2022-09-15T06:33:52.364Z,17.10
2022-09-15T06:36:21.388Z,18.80
2022-09-15T06:38:48.736Z,20.95
2022-09-15T06:41:15.858Z,19.27
2022-09-15T06:43:42.808Z,16.48
2022-09-15T06:46:14.886Z,16.52
2022-09-15T06:48:46.248Z,16.77
2022-09-15T06:51:17.149Z,17.50
2022-09-15T06:53:44.571Z,16.10
2022-09-15T06:56:22.307Z,15.15
2022-09-15T06:58:49.347Z,14.55
2022-09-15T07:01:22.407Z,16.55
2022-09-15T07:03:49.113Z,14.50
2022-09-15T07:06:15.672Z,17.85
2022-09-15T07:08:42.958Z,18.08
2022-09-15T07:11:10.387Z,20.08
2022-09-15T07:13:38.098Z,17.73
2022-09-15T07:16:07.487Z,16.50
2022-09-15T07:18:37.651Z,14.85
2022-09-15T07:21:11.311Z,18.55
2022-09-15T07:23:37.991Z,13.85
2022-09-15T07:26:09.162Z,13.80
2022-09-15T07:28:36.296Z,20.50
2022-09-15T07:31:04.604Z,15.48
2022-09-15T07:33:31.595Z,16.42
2022-09-15T07:35:58.257Z,14.52
2022-09-15T07:38:25.240Z,13.30
2022-09-15T07:40:52.139Z,14.32
2022-09-15T07:43:19.125Z,18.27
2022-09-15T07:45:45.773Z,12.98
2022-09-15T07:48:12.388Z,13.35
2022-09-15T07:50:38.965Z,15.02
2022-09-15T07:53:05.487Z,15.23
2022-09-15T07:55:32.803Z,12.98
2022-09-15T07:58:03.236Z,11.73
2022-09-15T08:00:30.187Z,14.85
2022-09-15T08:02:57.105Z,16.80
2022-09-15T08:05:28.334Z,15.25
2022-09-15T08:07:55.898Z,12.27
2022-09-15T08:10:25.158Z,15.00
2022-09-15T08:12:52.802Z,16.30
2022-09-15T08:15:19.421Z,15.98
2022-09-15T08:17:46.636Z,15.02
2022-09-15T08:20:14.303Z,15.23
2022-09-15T08:22:42.042Z,13.20
2022-09-15T08:25:08.974Z,13.88
2022-09-15T08:27:35.545Z,15.02
2022-09-15T08:30:02.079Z,13.32
2022-09-15T08:32:28.678Z,16.00
2022-09-15T08:34:55.320Z,13.02
2022-09-15T08:37:22.081Z,16.05
2022-09-15T08:39:48.872Z,14.52
2022-09-15T08:42:20.623Z,13.70
2022-09-15T08:45:02.565Z,16.02
2022-09-15T08:47:29.119Z,16.45
2022-09-15T08:50:16.901Z,13.90
2022-09-15T08:52:53.940Z,13.98
2022-09-15T08:55:43.718Z,13.60
2022-09-15T08:58:16.835Z,14.13
2022-09-15T09:00:48.623Z,16.27
2022-09-15T09:03:27.018Z,12.73
2022-09-15T09:06:08.719Z,10.27
2022-09-15T09:08:56.150Z,13.35
2022-09-15T09:11:31.749Z,14.45
2022-09-15T09:14:07.201Z,13.75
2022-09-15T09:16:58.431Z,14.25
2022-09-15T09:19:37.135Z,11.90
2022-09-15T09:22:14.673Z,13.55
2022-09-15T09:24:45.714Z,11.57
2022-09-15T09:27:20.046Z,12.07
2022-09-15T09:29:49.951Z,10.98
2022-09-15T09:32:21.625Z,10.95
2022-09-15T09:35:00.922Z,13.20
2022-09-15T09:37:28.250Z,10.93
2022-09-15T09:39:54.826Z,12.73
2022-09-15T09:42:28.710Z,12.85
2022-09-15T09:44:55.424Z,11.90
2022-09-15T09:47:27.841Z,14.60
2022-09-15T09:49:54.432Z,12.35
2022-09-15T09:52:38.156Z,12.10
2022-09-15T09:55:27.149Z,11.77
2022-09-15T09:57:54.630Z,14.27
2022-09-15T10:00:34.524Z,13.20
2022-09-15T10:03:18.212Z,10.88
2022-09-15T10:06:00.192Z,13.93
2022-09-15T10:08:27.102Z,11.35
2022-09-15T10:10:56.753Z,11.73
2022-09-15T10:13:23.459Z,10.27
2022-09-15T10:16:02.304Z,12.20
2022-09-15T10:18:33.459Z,10.90
2022-09-15T10:21:03.266Z,10.48
2022-09-15T10:23:32.036Z,10.20
2022-09-15T10:26:22.107Z,8.70
2022-09-15T10:29:10.463Z,13.15
2022-09-15T10:31:37.087Z,9.55
2022-09-15T10:34:33.013Z,12.52
2022-09-15T10:37:14.205Z,8.05
2022-09-15T10:39:51.664Z,7.38
2022-09-15T10:42:47.182Z,8.77
2022-09-15T10:45:30.553Z,11.10
2022-09-15T10:48:14.206Z,9.88
2022-09-15T10:50:49.151Z,9.63
2022-09-15T10:53:42.024Z,9.30
2022-09-15T10:56:20.551Z,9.80
2022-09-15T10:59:13.816Z,9.40
2022-09-15T11:02:03.370Z,7.97
2022-09-15T11:04:47.330Z,8.93
2022-09-15T11:07:51.266Z,8.85
2022-09-15T11:10:42.201Z,7.97
2022-09-15T11:13:14.593Z,7.13
2022-09-15T11:16:00.152Z,7.90
2022-09-15T11:19:01.731Z,8.60
2022-09-15T11:21:28.246Z,7.55
2022-09-15T11:24:30.451Z,8.63
2022-09-15T11:27:01.112Z,8.15
2022-09-15T11:29:31.373Z,7.13
2022-09-15T11:32:09.840Z,8.48
2022-09-15T11:34:45.072Z,7.05
2022-09-15T11:37:25.125Z,9.05
2022-09-15T11:40:12.980Z,5.97
2022-09-15T11:42:46.547Z,7.90
2022-09-15T11:45:20.205Z,8.13
2022-09-15T11:47:52.682Z,6.53
2022-09-15T11:50:28.175Z,7.30
2022-09-15T11:53:04.526Z,6.50
2022-09-15T11:55:50.743Z,7.43
2022-09-15T12:01:11.056Z,7.82
2022-09-15T12:03:40.673Z,6.53
2022-09-15T12:06:27.524Z,10.30
2022-09-15T12:09:02.022Z,6.47
2022-09-15T12:11:36.979Z,7.53
2022-09-15T12:14:05.195Z,9.27
2022-09-15T12:16:34.267Z,9.13
2022-09-15T12:19:14.566Z,7.75
2022-09-15T12:21:50.115Z,8.88
2022-09-15T12:24:19.578Z,8.27
2022-09-15T12:26:46.715Z,9.98
2022-09-15T12:29:22.329Z,7.05
2022-09-15T12:31:48.945Z,19.00
2022-09-15T12:34:36.961Z,9.43
2022-09-15T12:37:18.011Z,8.38
2022-09-15T12:39:46.139Z,9.30
2022-09-15T12:42:24.738Z,11.25
2022-09-15T12:45:00.890Z,10.50
2022-09-15T12:47:28.528Z,7.22
2022-09-15T12:49:59.706Z,7.80
2022-09-15T12:52:26.786Z,10.48
2022-09-15T12:54:58.773Z,9.50
2022-09-15T12:57:36.813Z,9.75
2022-09-15T13:00:33.781Z,8.63
2022-09-15T13:03:01.909Z,8.98
2022-09-15T13:05:46.068Z,8.43
2022-09-15T13:08:15.389Z,8.20
2022-09-15T13:10:59.842Z,10.43
2022-09-15T13:13:43.840Z,8.73
2022-09-15T13:16:30.913Z,8.75
2022-09-15T13:19:28.492Z,10.45
2022-09-15T13:22:27.172Z,8.88
2022-09-15T13:25:04.814Z,10.60
2022-09-15T13:27:40.988Z,8.85
2022-09-15T13:30:29.522Z,10.13
2022-09-15T13:33:20.121Z,7.97
2022-09-15T13:36:25.564Z,9.18
2022-09-15T13:39:24.180Z,9.40
2022-09-15T13:42:18.129Z,7.35
2022-09-15T13:45:03.536Z,10.23
2022-09-15T13:48:00.065Z,11.40
2022-09-15T13:50:36.669Z,7.15
2022-09-15T13:53:32.928Z,9.35
2022-09-15T13:56:06.097Z,9.02
2022-09-15T14:01:22.258Z,7.43
2022-09-15T14:03:53.654Z,8.30
2022-09-15T14:06:33.725Z,9.05
2022-09-15T14:09:12.834Z,8.32
2022-09-15T14:11:41.437Z,9.18
2022-09-15T14:14:27.823Z,10.73
2022-09-15T14:16:56.268Z,9.23
2022-09-15T14:19:39.136Z,9.10
2022-09-15T14:22:17.825Z,9.52
2022-09-15T14:24:44.497Z,9.13
2022-09-15T14:27:13.028Z,9.48
2022-09-15T14:29:43.856Z,10.68
2022-09-15T14:32:15.756Z,11.38
2022-09-15T14:34:44.263Z,10.10
2022-09-15T14:37:28.472Z,10.68
2022-09-15T14:39:58.059Z,12.30
2022-09-15T14:42:36.105Z,9.50
2022-09-15T14:48:07.270Z,10.35
2022-09-15T14:50:34.191Z,9.93
2022-09-15T14:53:21.345Z,8.75
2022-09-15T14:56:11.715Z,11.07
2022-09-15T14:58:52.628Z,9.48
2022-09-15T15:01:31.549Z,11.18
2022-09-15T15:04:11.348Z,13.52
2022-09-15T15:06:45.221Z,12.85
2022-09-15T15:09:26.763Z,12.52
2022-09-15T15:11:58.917Z,12.15
2022-09-15T15:14:26.071Z,13.23
2022-09-15T15:17:02.248Z,10.18
2022-09-15T15:19:34.973Z,11.65
2022-09-15T15:22:28.231Z,15.10
2022-09-15T15:24:55.413Z,12.88
2022-09-15T15:27:33.733Z,12.82
2022-09-15T15:30:30.389Z,11.68
2022-09-15T15:35:25.891Z,17.08
2022-09-15T15:38:16.929Z,17.85
2022-09-15T15:40:44.824Z,14.73
2022-09-15T15:43:21.652Z,11.30
2022-09-15T15:45:50.995Z,12.65
2022-09-15T15:48:17.566Z,11.85
2022-09-15T15:50:44.146Z,12.07
2022-09-15T15:53:10.739Z,16.38
2022-09-15T15:55:40.553Z,13.75
2022-09-15T15:58:07.587Z,15.75
2022-09-15T16:00:46.060Z,12.95
2022-09-15T16:03:14.203Z,15.77
2022-09-15T16:05:46.747Z,14.43
2022-09-15T16:08:33.075Z,13.68
2022-09-15T16:11:02.214Z,14.00
2022-09-15T16:13:29.694Z,13.27
2022-09-15T16:16:00.446Z,13.02
2022-09-15T16:18:28.701Z,12.90
2022-09-15T16:20:55.269Z,15.70
2022-09-15T16:23:23.498Z,11.73
2022-09-15T16:26:02.541Z,10.80
2022-09-15T16:28:29.519Z,15.32
2022-09-15T16:30:57.134Z,13.65
2022-09-15T16:33:24.915Z,15.30
2022-09-15T16:36:06.874Z,17.08
2022-09-15T16:38:34.832Z,12.93
2022-09-15T16:41:02.205Z,13.32
2022-09-15T16:43:28.918Z,13.82
2022-09-15T16:45:55.498Z,12.43
2022-09-15T16:48:22.116Z,15.40
2022-09-15T16:51:09.528Z,15.70
2022-09-15T16:53:41.123Z,16.70
2022-09-15T16:56:11.240Z,13.63
2022-09-15T16:58:38.401Z,16.30
2022-09-15T17:01:06.050Z,14.13
2022-09-15T17:03:32.737Z,15.38
2022-09-15T17:06:01.861Z,14.30
2022-09-15T17:08:31.256Z,17.23
2022-09-15T17:11:04.198Z,13.43
2022-09-15T17:13:33.121Z,16.65
2022-09-15T17:16:00.937Z,16.02
2022-09-15T17:18:28.629Z,18.30
2022-09-15T17:20:55.153Z,15.38
2022-09-15T17:23:23.417Z,13.82
2022-09-15T17:25:53.022Z,16.50
2022-09-15T17:28:22.503Z,15.70
2022-09-15T17:30:51.427Z,18.33
2022-09-15T17:33:19.799Z,19.60
2022-09-15T17:35:47.195Z,19.92
2022-09-15T17:38:13.859Z,17.45
2022-09-15T17:40:40.531Z,15.80
2022-09-15T17:43:15.173Z,16.60
2022-09-15T17:45:42.233Z,16.63
2022-09-15T17:48:09.362Z,21.45
2022-09-15T17:50:38.122Z,15.43
2022-09-15T17:53:22.852Z,20.48
2022-09-15T17:55:54.424Z,16.38
2022-09-15T17:58:22.236Z,18.13
2022-09-15T18:00:49.791Z,19.00
2022-09-15T18:03:28.868Z,20.67
2022-09-15T18:05:56.829Z,21.55
2022-09-15T18:08:23.402Z,20.40
2022-09-15T18:10:50.758Z,20.85
2022-09-15T18:13:23.594Z,17.75
2022-09-15T18:15:51.099Z,18.20
2022-09-15T18:18:22.580Z,16.95
2022-09-15T18:20:51.967Z,17.15
2022-09-15T18:23:21.328Z,19.45
2022-09-15T18:25:48.570Z,18.83
2022-09-15T18:28:16.523Z,21.83
2022-09-15T18:30:46.092Z,18.10
2022-09-15T18:33:16.992Z,20.55
2022-09-15T18:35:44.232Z,24.10
2022-09-15T18:38:11.551Z,17.15
2022-09-15T18:40:38.683Z,19.80
2022-09-15T18:43:05.631Z,14.13
2022-09-15T18:45:32.199Z,17.08
2022-09-15T18:47:58.811Z,20.50
2022-09-15T18:50:25.637Z,17.60
2022-09-15T18:52:53.028Z,18.17
2022-09-15T18:55:22.101Z,16.92
2022-09-15T18:57:49.561Z,19.33
2022-09-15T19:00:28.110Z,15.15
2022-09-15T19:03:02.973Z,16.52
2022-09-15T19:05:30.349Z,21.93
2022-09-15T19:07:57.330Z,21.30
2022-09-15T19:10:26.572Z,16.55
2022-09-15T19:12:54.011Z,20.58
2022-09-15T19:15:23.747Z,16.83
2022-09-15T19:17:50.816Z,21.08
2022-09-15T19:20:17.638Z,16.63
2022-09-15T19:22:44.307Z,15.60
2022-09-15T19:25:11.666Z,16.23
2022-09-15T19:27:39.737Z,19.48
2022-09-15T19:30:10.051Z,17.40
2022-09-15T19:32:38.248Z,15.63
2022-09-15T19:35:05.457Z,16.38
2022-09-15T19:37:35.285Z,18.00
2022-09-15T19:40:03.406Z,19.40
2022-09-15T19:42:30.186Z,13.45
2022-09-15T19:44:56.757Z,21.10
2022-09-15T19:47:23.459Z,15.48
2022-09-15T19:49:51.937Z,20.40
2022-09-15T19:52:18.566Z,18.20
2022-09-15T19:54:45.118Z,17.75
2022-09-15T19:57:11.694Z,18.15
2022-09-15T19:59:38.501Z,15.38
2022-09-15T20:02:05.126Z,16.60
2022-09-15T20:04:31.846Z,14.32
2022-09-15T20:06:58.435Z,11.95
2022-09-15T20:09:25.001Z,11.88
2022-09-15T20:11:51.567Z,14.95
2022-09-15T20:14:18.140Z,12.93
2022-09-15T20:16:44.766Z,11.40
2022-09-15T20:19:11.469Z,7.28
2022-09-15T20:21:55.573Z,10.20
2022-09-15T20:24:23.657Z,8.27
2022-09-15T20:26:50.889Z,8.95
2022-09-15T20:29:17.701Z,9.18
2022-09-15T20:31:44.395Z,6.25
2022-09-15T20:34:11.086Z,8.07
2022-09-15T20:36:38.993Z,8.90
2022-09-15T20:39:10.391Z,8.50
2022-09-15T20:41:37.121Z,7.28
2022-09-15T20:44:05.207Z,7.60
2022-09-15T20:46:31.826Z,6.40
2022-09-15T20:48:58.427Z,9.30
2022-09-15T20:51:27.919Z,6.25
2022-09-15T20:53:56.162Z,9.40
2022-09-15T20:56:25.604Z,9.65
2022-09-15T20:58:54.098Z,7.03
2022-09-15T21:01:26.029Z,7.75
2022-09-15T21:03:53.476Z,8.20
2022-09-15T21:06:22.295Z,9.95
2022-09-15T21:08:49.700Z,9.57
2022-09-15T21:11:19.346Z,10.27
2022-09-15T21:13:47.180Z,10.30
2022-09-15T21:16:21.691Z,7.97
2022-09-15T21:18:49.663Z,8.50
2022-09-15T21:21:28.301Z,8.75
2022-09-15T21:23:57.027Z,9.10
2022-09-15T21:26:25.799Z,7.70
2022-09-15T21:28:54.195Z,8.90
2022-09-15T21:31:26.573Z,8.23
2022-09-15T21:33:54.403Z,8.77
2022-09-15T21:36:31.388Z,6.05
2022-09-15T21:38:59.454Z,9.63
2022-09-15T21:41:29.704Z,5.85
2022-09-15T21:43:58.030Z,6.40
2022-09-15T21:46:27.835Z,6.13
2022-09-15T21:48:55.766Z,5.22
2022-09-15T21:51:25.044Z,5.68
2022-09-15T21:53:56.142Z,6.85
2022-09-15T21:56:24.454Z,7.30
2022-09-15T21:58:51.025Z,6.43
2022-09-15T22:01:20.168Z,5.75
2022-09-15T22:03:52.435Z,6.82
2022-09-15T22:06:21.422Z,6.40
2022-09-15T22:08:48.283Z,5.78
2022-09-15T22:11:14.846Z,5.03
2022-09-15T22:13:43.649Z,6.30
2022-09-15T22:16:16.493Z,5.28
2022-09-15T22:18:43.587Z,3.75
2022-09-15T22:21:13.764Z,3.25
2022-09-15T22:23:40.957Z,4.20
2022-09-15T22:26:16.866Z,3.30
2022-09-15T22:28:43.805Z,4.50
2022-09-15T22:31:12.888Z,4.38
2022-09-15T22:33:41.247Z,3.90
2022-09-15T22:36:16.477Z,4.47
2022-09-15T22:38:43.493Z,3.67
2022-09-15T22:41:12.740Z,4.30
2022-09-15T22:43:41.419Z,3.70
2022-09-15T22:46:09.044Z,5.35
2022-09-15T22:48:39.764Z,4.05
2022-09-15T22:51:10.100Z,3.60
2022-09-15T22:53:36.616Z,3.70
2022-09-15T22:56:06.700Z,4.32
2022-09-15T22:58:35.186Z,3.75
2022-09-15T23:01:10.780Z,3.35
2022-09-15T23:03:38.057Z,2.90
2022-09-15T23:06:05.427Z,4.45
2022-09-15T23:08:33.074Z,3.13
2022-09-15T23:11:08.314Z,3.60
2022-09-15T23:13:35.725Z,3.00
2022-09-15T23:16:02.991Z,3.42
2022-09-15T23:18:30.080Z,3.53
2022-09-15T23:21:01.621Z,5.50
2022-09-15T23:23:28.409Z,3.75
2022-09-15T23:25:55.797Z,3.58
2022-09-15T23:28:23.361Z,3.15
2022-09-15T23:30:54.417Z,3.00
2022-09-15T23:33:21.801Z,4.50
2022-09-15T23:35:48.775Z,4.25
2022-09-15T23:38:15.811Z,6.15
2022-09-15T23:40:43.370Z,3.67
2022-09-15T23:43:11.241Z,4.80
2022-09-15T23:45:37.814Z,4.03
2022-09-15T23:48:06.054Z,5.07
2022-09-15T23:50:32.989Z,7.57
2022-09-15T23:52:59.614Z,3.15
2022-09-15T23:55:26.206Z,6.35
2022-09-15T23:57:53.175Z,3.65
